^^
Station Historical Data
 
Daily Summary for November 15, 2018 Units:  English    Metric   Both
« Previous Day
Next Day »
Daily Weekly Monthly Yearly Custom
  Current: High: Low: Average:
Temperature: 50.5 °F TemperatureF °F 36.3 °F 45.4 °F
Dew Point: 19.4 °F DewpointF °F 12.0 °F 16 °F
Humidity: 29 % Humidity % 21 % 30 %
Wind Speed: 11.0 mph WindSpeedMPH mph 0.0 mph 6 mph
Wind Gust: 16.0 mph WindSpeedGustMPH mph - -
Wind:ENE - - SSE
Pressure: 30.14 in PressureIn in 30.13 in -
Precipitation: 0.00 in      
Historical Graphs
 
 
Tabular Data for November 15, 2018
Time Temperature Dew Point Pressure Wind Wind Speed Wind Gust Humidity Rainfall Rate (Hourly)
TemperatureF °F DewpointF °F PressureIn in Calm     Humidity % HourlyPrecipIn in
00:04 43.5 °F 14.2 °F 30.34 in SW 2.9 mph 3.0 mph 30 % 0.00 in
00:09 43.9 °F 14.4 °F 30.34 in SW 2.0 mph 4.0 mph 30 % 0.00 in
00:14 43.7 °F 14.4 °F 30.34 in SW 2.0 mph 2.0 mph 30 % 0.00 in
00:19 43.7 °F 14.4 °F 30.34 in Calm   1.0 mph 30 % 0.00 in
00:24 43.3 °F 14.7 °F 30.34 in WSW 2.9 mph 3.0 mph 31 % 0.00 in
00:29 43.7 °F 14.4 °F 30.33 in SW 2.0 mph 4.0 mph 30 % 0.00 in
00:34 43.9 °F 14.4 °F 30.33 in WSW 4.9 mph 6.0 mph 30 % 0.00 in
00:39 43.9 °F 14.4 °F 30.33 in WSW 8.9 mph 9.0 mph 30 % 0.00 in
00:44 44.4 °F 14.9 °F 30.33 in West 4.9 mph 6.0 mph 30 % 0.00 in
00:49 43.7 °F 15.8 °F 30.33 in ENE 0.9 mph 2.0 mph 32 % 0.00 in
00:54 42.3 °F 15.3 °F 30.33 in WSW 0.9 mph 4.0 mph 33 % 0.00 in
00:59 41.9 °F 15.6 °F 30.33 in West 2.0 mph 3.0 mph 34 % 0.00 in
01:04 41.7 °F 14.7 °F 30.33 in WSW 4.9 mph 5.0 mph 33 % 0.00 in
01:09 42.3 °F 15.3 °F 30.33 in WSW 7.0 mph 7.0 mph 33 % 0.00 in
01:14 43.9 °F 15.3 °F 30.33 in NNW 4.0 mph 8.0 mph 31 % 0.00 in
01:19 43.9 °F 15.3 °F 30.32 in West 8.9 mph 9.0 mph 31 % 0.00 in
01:24 43.3 °F 15.4 °F 30.32 in WSW 4.0 mph 8.0 mph 32 % 0.00 in
01:29 43.2 °F 15.3 °F 30.32 in WSW 6.0 mph 7.0 mph 32 % 0.00 in
01:34 43.2 °F 15.3 °F 30.32 in WSW 8.1 mph 8.0 mph 32 % 0.00 in
01:39 43.5 °F 15.6 °F 30.32 in West 2.0 mph 6.0 mph 32 % 0.00 in
01:44 43.5 °F 15.6 °F 30.32 in West 6.0 mph 6.0 mph 32 % 0.00 in
01:49 42.6 °F 15.4 °F 30.32 in WSW 6.9 mph 8.0 mph 33 % 0.00 in
01:54 42.4 °F 15.4 °F 30.32 in South 2.9 mph 10.0 mph 33 % 0.00 in
01:59 42.8 °F 15.6 °F 30.32 in SSW 6.0 mph 10.0 mph 33 % 0.00 in
02:04 41.7 °F 15.4 °F 30.32 in WSW 6.0 mph 13.0 mph 34 % 0.00 in
02:09 41.5 °F 15.3 °F 30.32 in SW 8.1 mph 11.0 mph 34 % 0.00 in
02:14 41.0 °F 15.4 °F 30.31 in WSW 12.1 mph 13.0 mph 35 % 0.00 in
02:19 39.6 °F 16.0 °F 30.31 in SSW 6.9 mph 12.0 mph 38 % 0.00 in
02:24 39.7 °F 15.6 °F 30.31 in South 2.9 mph 13.0 mph 37 % 0.00 in
02:29 40.8 °F 15.3 °F 30.31 in SE 4.0 mph 10.0 mph 35 % 0.00 in
02:34 42.1 °F 15.1 °F 30.30 in WSW 8.9 mph 9.0 mph 33 % 0.00 in
02:39 43.2 °F 15.3 °F 30.30 in SSW 4.0 mph 6.0 mph 32 % 0.00 in
02:44 43.5 °F 15.6 °F 30.30 in SE 4.9 mph 6.0 mph 32 % 0.00 in
02:49 42.8 °F 14.9 °F 30.30 in South 4.9 mph 6.0 mph 32 % 0.00 in
02:54 42.3 °F 15.3 °F 30.29 in SE 4.9 mph 11.0 mph 33 % 0.00 in
02:59 42.6 °F 15.4 °F 30.29 in SW 4.0 mph 12.0 mph 33 % 0.00 in
03:04 42.3 °F 15.3 °F 30.29 in WSW 6.0 mph 9.0 mph 33 % 0.00 in
03:09 43.3 °F 16.2 °F 30.29 in WSW 4.9 mph 12.0 mph 33 % 0.00 in
03:14 43.2 °F 15.3 °F 30.29 in WSW 8.9 mph 13.0 mph 32 % 0.00 in
03:19 43.5 °F 15.6 °F 30.29 in WSW 6.0 mph 10.0 mph 32 % 0.00 in
03:24 44.1 °F 15.3 °F 30.28 in WSW 8.9 mph 9.0 mph 31 % 0.00 in
03:29 44.2 °F 15.4 °F 30.28 in WSW 10.1 mph 11.0 mph 31 % 0.00 in
03:34 44.1 °F 16.2 °F 30.28 in SW 2.9 mph 6.0 mph 32 % 0.00 in
03:39 43.0 °F 15.8 °F 30.28 in WSW 6.0 mph 10.0 mph 33 % 0.00 in
03:44 43.3 °F 15.4 °F 30.27 in West 4.9 mph 6.0 mph 32 % 0.00 in
03:49 43.0 °F 15.1 °F 30.27 in SW 4.9 mph 6.0 mph 32 % 0.00 in
03:54 43.2 °F 15.3 °F 30.27 in WSW 4.9 mph 6.0 mph 32 % 0.00 in
03:57 43.2 °F 15.3 °F 30.27 in Calm   7.0 mph 32 % 0.00 in
04:04 40.8 °F 15.3 °F 30.27 in WSW 4.9 mph 8.0 mph 35 % 0.00 in
04:09 39.2 °F 15.1 °F 30.27 in SSE 6.0 mph 10.0 mph 37 % 0.00 in
04:14 37.6 °F 15.4 °F 30.26 in SSE 6.0 mph 10.0 mph 40 % 0.00 in
04:19 37.8 °F 15.6 °F 30.25 in SSE 6.0 mph 11.0 mph 40 % 0.00 in
04:24 36.3 °F 16.0 °F 30.26 in SW 6.0 mph 10.0 mph 43 % 0.00 in
04:29 37.2 °F 15.6 °F 30.25 in South 4.0 mph 9.0 mph 41 % 0.00 in
04:34 37.2 °F 15.1 °F 30.25 in SSE 4.0 mph 7.0 mph 40 % 0.00 in
04:39 37.2 °F 15.6 °F 30.25 in SSW 6.0 mph 9.0 mph 41 % 0.00 in
04:44 37.0 °F 15.4 °F 30.25 in SSW 4.9 mph 6.0 mph 41 % 0.00 in
04:49 36.9 °F 15.4 °F 30.25 in West 4.9 mph 10.0 mph 41 % 0.00 in
04:54 39.0 °F 14.4 °F 30.24 in SSE 4.0 mph 5.0 mph 36 % 0.00 in
04:59 40.6 °F 15.1 °F 30.24 in Calm   4.0 mph 35 % 0.00 in
05:04 40.6 °F 14.5 °F 30.24 in South 4.9 mph 6.0 mph 34 % 0.00 in
05:09 41.2 °F 14.9 °F 30.24 in South 4.9 mph 7.0 mph 34 % 0.00 in
05:14 41.9 °F 14.9 °F 30.24 in South 2.0 mph 6.0 mph 33 % 0.00 in
05:19 39.9 °F 14.5 °F 30.24 in SSE 0.9 mph 3.0 mph 35 % 0.00 in
05:24 38.8 °F 14.7 °F 30.24 in SSE 4.9 mph 7.0 mph 37 % 0.00 in
05:29 39.0 °F 14.9 °F 30.23 in Calm   7.0 mph 37 % 0.00 in
05:34 40.5 °F 14.4 °F 30.24 in WSW 2.0 mph 3.0 mph 34 % 0.00 in
05:39 42.4 °F 14.7 °F 30.23 in Calm   3.0 mph 32 % 0.00 in
05:44 42.1 °F 15.8 °F 30.23 in South 2.9 mph 5.0 mph 34 % 0.00 in
05:49 40.3 °F 14.2 °F 30.23 in ESE 4.9 mph 5.0 mph 34 % 0.00 in
05:54 40.1 °F 17.1 °F 30.23 in WSW 2.9 mph 6.0 mph 39 % 0.00 in
05:59 39.2 °F 15.1 °F 30.23 in West 0.9 mph 4.0 mph 37 % 0.00 in
06:04 39.4 °F 15.8 °F 30.22 in West 2.9 mph 5.0 mph 38 % 0.00 in
06:09 39.7 °F 13.6 °F 30.22 in WSW 4.0 mph 5.0 mph 34 % 0.00 in
06:14 40.8 °F 14.0 °F 30.22 in Calm   3.0 mph 33 % 0.00 in
06:19 39.9 °F 13.8 °F 30.22 in NNW 4.0 mph 6.0 mph 34 % 0.00 in
06:24 40.8 °F 14.5 °F 30.23 in Calm   6.0 mph 34 % 0.00 in
06:29 40.5 °F 14.9 °F 30.22 in WSW 2.9 mph 7.0 mph 35 % 0.00 in
06:34 41.4 °F 12.9 °F 30.22 in West 2.0 mph 3.0 mph 31 % 0.00 in
06:39 42.3 °F 14.5 °F 30.23 in West 4.0 mph 8.0 mph 32 % 0.00 in
06:44 41.5 °F 14.5 °F 30.22 in WNW 4.0 mph 9.0 mph 33 % 0.00 in
06:49 41.7 °F 13.3 °F 30.22 in SW 4.0 mph 5.0 mph 31 % 0.00 in
06:54 42.3 °F 13.1 °F 30.22 in SW 4.0 mph 6.0 mph 30 % 0.00 in
06:59 42.8 °F 12.7 °F 30.22 in WSW 2.0 mph 7.0 mph 29 % 0.00 in
07:04 43.2 °F 13.1 °F 30.22 in WSW 0.9 mph 5.0 mph 29 % 0.00 in
07:09 43.3 °F 13.3 °F 30.22 in WSW 2.0 mph 3.0 mph 29 % 0.00 in
07:14 44.1 °F 13.1 °F 30.22 in NW 0.9 mph 4.0 mph 28 % 0.00 in
07:19 44.8 °F 12.0 °F 30.22 in Calm   1.0 mph 26 % 0.00 in
07:24 46.0 °F 14.0 °F 30.22 in ENE 2.0 mph 2.0 mph 27 % 0.00 in
07:29 45.9 °F 12.9 °F 30.22 in Calm   2.0 mph 26 % 0.00 in
07:34 45.9 °F 13.8 °F 30.22 in ENE 6.9 mph 9.0 mph 27 % 0.00 in
07:39 43.9 °F 14.4 °F 30.23 in NE 6.0 mph 6.0 mph 30 % 0.00 in
07:44 44.2 °F 13.1 °F 30.23 in ENE 4.9 mph 10.0 mph 28 % 0.00 in
07:49 44.4 °F 13.3 °F 30.23 in ENE 6.9 mph 7.0 mph 28 % 0.00 in
07:54 45.0 °F 13.8 °F 30.23 in ENE 4.9 mph 9.0 mph 28 % 0.00 in
07:59 45.3 °F 13.3 °F 30.23 in ENE 6.9 mph 9.0 mph 27 % 0.00 in
08:04 46.4 °F 13.3 °F 30.23 in East 10.1 mph 10.0 mph 26 % 0.00 in
08:09 46.8 °F 13.6 °F 30.23 in ENE 13.0 mph 17.0 mph 26 % 0.00 in
08:14 46.9 °F 14.7 °F 30.24 in NE 12.1 mph 14.0 mph 27 % 0.00 in
08:19 47.1 °F 13.1 °F 30.24 in NE 11.0 mph 12.0 mph 25 % 0.00 in
08:24 47.8 °F 12.7 °F 30.24 in ENE 11.0 mph 13.0 mph 24 % 0.00 in
08:29 48.2 °F 14.0 °F 30.24 in NE 10.1 mph 15.0 mph 25 % 0.00 in
08:34 48.6 °F 13.5 °F 30.24 in NE 6.0 mph 10.0 mph 24 % 0.00 in
08:39 48.7 °F 14.5 °F 30.24 in NE 4.9 mph 6.0 mph 25 % 0.00 in
08:44 48.9 °F 14.5 °F 30.24 in NE 4.0 mph 5.0 mph 25 % 0.00 in
08:49 49.1 °F 12.9 °F 30.24 in North 8.1 mph 13.0 mph 23 % 0.00 in
08:54 49.3 °F 14.0 °F 30.24 in ENE 4.0 mph 7.0 mph 24 % 0.00 in
08:59 49.5 °F 13.1 °F 30.24 in North 2.9 mph 5.0 mph 23 % 0.00 in
09:04 49.8 °F 13.5 °F 30.24 in NNE 2.9 mph 9.0 mph 23 % 0.00 in
09:09 50.0 °F 12.6 °F 30.24 in North 4.0 mph 6.0 mph 22 % 0.00 in
09:14 50.4 °F 14.0 °F 30.24 in NNW 4.0 mph 4.0 mph 23 % 0.00 in
09:19 50.5 °F 13.1 °F 30.24 in Calm   8.0 mph 22 % 0.00 in
09:24 51.1 °F 14.5 °F 30.24 in NE 6.0 mph 6.0 mph 23 % 0.00 in
09:29 51.3 °F 13.6 °F 30.24 in ENE 4.9 mph 9.0 mph 22 % 0.00 in
09:34 51.3 °F 13.6 °F 30.23 in North 4.0 mph 5.0 mph 22 % 0.00 in
09:39 51.4 °F 13.8 °F 30.23 in East 0.9 mph 8.0 mph 22 % 0.00 in
09:44 52.0 °F 15.3 °F 30.23 in North 2.0 mph 4.0 mph 23 % 0.00 in
09:49 52.0 °F 13.3 °F 30.23 in NNW 4.9 mph 8.0 mph 21 % 0.00 in
09:54 52.2 °F 13.5 °F 30.23 in NE 4.9 mph 8.0 mph 21 % 0.00 in
09:59 52.3 °F 13.5 °F 30.23 in NNE 8.9 mph 12.0 mph 21 % 0.00 in
10:04 52.2 °F 15.4 °F 30.22 in ENE 8.1 mph 11.0 mph 23 % 0.00 in
10:09 51.6 °F 16.0 °F 30.22 in ENE 8.9 mph 19.0 mph 24 % 0.00 in
10:14 51.4 °F 16.7 °F 30.22 in ENE 8.9 mph 16.0 mph 25 % 0.00 in
10:19 50.4 °F 18.5 °F 30.22 in ENE 13.0 mph 19.0 mph 28 % 0.00 in
10:24 49.8 °F 18.9 °F 30.22 in NE 6.9 mph 16.0 mph 29 % 0.00 in
10:29 50.0 °F 18.1 °F 30.22 in NE 10.1 mph 15.0 mph 28 % 0.00 in
10:34 50.2 °F 19.2 °F 30.22 in ENE 11.0 mph 14.0 mph 29 % 0.00 in
10:39 50.2 °F 19.2 °F 30.22 in ENE 15.0 mph 16.0 mph 29 % 0.00 in
10:44 50.4 °F 19.2 °F 30.21 in ENE 13.0 mph 14.0 mph 29 % 0.00 in
10:49 50.7 °F 18.9 °F 30.21 in East 8.9 mph 14.0 mph 28 % 0.00 in
10:54 50.7 °F 18.9 °F 30.21 in ENE 8.1 mph 9.0 mph 28 % 0.00 in
10:59 50.7 °F 18.9 °F 30.21 in ENE 8.9 mph 15.0 mph 28 % 0.00 in
11:04 50.7 °F 18.0 °F 30.21 in NNE 6.9 mph 10.0 mph 27 % 0.00 in
11:09 50.9 °F 18.1 °F 30.21 in ENE 6.0 mph 8.0 mph 27 % 0.00 in
11:14 50.4 °F 17.6 °F 30.20 in ENE 10.1 mph 12.0 mph 27 % 0.00 in
11:19 50.0 °F 19.8 °F 30.20 in ENE 10.1 mph 15.0 mph 30 % 0.00 in
11:24 50.7 °F 20.5 °F 30.19 in NE 8.1 mph 10.0 mph 30 % 0.00 in
11:29 50.4 °F 18.5 °F 30.19 in East 8.1 mph 12.0 mph 28 % 0.00 in
11:34 50.5 °F 19.4 °F 30.19 in ENE 10.1 mph 13.0 mph 29 % 0.00 in
11:39 50.7 °F 20.5 °F 30.19 in ENE 8.9 mph 10.0 mph 30 % 0.00 in
11:44 50.7 °F 19.6 °F 30.19 in East 11.0 mph 14.0 mph 29 % 0.00 in
11:49 50.0 °F 19.8 °F 30.19 in ENE 12.1 mph 13.0 mph 30 % 0.00 in
11:54 49.8 °F 18.9 °F 30.18 in ENE 11.0 mph 13.0 mph 29 % 0.00 in
11:59 49.8 °F 18.9 °F 30.17 in ENE 0.9 mph 11.0 mph 29 % 0.00 in
12:04 50.0 °F 19.0 °F 30.17 in ENE 12.1 mph 12.0 mph 29 % 0.00 in
12:09 50.9 °F 20.5 °F 30.17 in ENE 4.0 mph 9.0 mph 30 % 0.00 in
12:14 51.6 °F 19.6 °F 30.17 in ENE 4.9 mph 9.0 mph 28 % 0.00 in
12:19 51.3 °F 20.1 °F 30.16 in ENE 6.0 mph 7.0 mph 29 % 0.00 in
12:24 50.7 °F 20.5 °F 30.16 in NE 4.0 mph 9.0 mph 30 % 0.00 in
12:29 50.7 °F 21.2 °F 30.16 in NE 4.9 mph 9.0 mph 31 % 0.00 in
12:34 50.9 °F 21.4 °F 30.15 in ENE 13.0 mph 13.0 mph 31 % 0.00 in
12:39 50.7 °F 20.5 °F 30.15 in East 6.0 mph 14.0 mph 30 % 0.00 in
12:44 50.7 °F 20.5 °F 30.15 in NE 4.0 mph 10.0 mph 30 % 0.00 in
12:49 51.1 °F 21.6 °F 30.15 in ENE 8.1 mph 8.0 mph 31 % 0.00 in
12:54 51.4 °F 21.7 °F 30.15 in ENE 12.1 mph 12.0 mph 31 % 0.00 in
12:59 51.8 °F 20.5 °F 30.14 in ENE 14.1 mph 14.0 mph 29 % 0.00 in
13:04 52.2 °F 20.8 °F 30.13 in NE 10.1 mph 16.0 mph 29 % 0.00 in
13:09 52.5 °F 21.2 °F 30.13 in NNE 2.9 mph 12.0 mph 29 % 0.00 in
13:14 52.5 °F 21.2 °F 30.13 in ENE 15.0 mph 15.0 mph 29 % 0.00 in
13:19 52.2 °F 20.1 °F 30.14 in ENE 17.9 mph 20.0 mph 28 % 0.00 in
13:24 51.3 °F 19.2 °F 30.14 in ENE 11.0 mph 15.0 mph 28 % 0.00 in
13:29 51.3 °F 20.8 °F 30.14 in NNE 8.9 mph 14.0 mph 30 % 0.00 in
13:34 51.1 °F 21.6 °F 30.14 in ENE 15.0 mph 17.0 mph 31 % 0.00 in
13:39 50.9 °F 21.4 °F 30.14 in ESE 12.1 mph 17.0 mph 31 % 0.00 in
13:44 50.5 °F 20.3 °F 30.14 in ENE 19.0 mph 19.0 mph 30 % 0.00 in
13:49 50.5 °F 20.3 °F 30.14 in ENE 4.0 mph 8.0 mph 30 % 0.00 in
13:54 50.9 °F 20.5 °F 30.14 in East 8.9 mph 13.0 mph 30 % 0.00 in
13:59 51.1 °F 19.9 °F 30.14 in ENE 8.9 mph 17.0 mph 29 % 0.00 in
14:04 50.9 °F 19.8 °F 30.14 in East 12.1 mph 19.0 mph 29 % 0.00 in
14:09 50.5 °F 19.4 °F 30.14 in ENE 11.0 mph 16.0 mph 29 % 0.00 in
Evergreen Colorado, USA
Compliments of Weather Underground - 2.75 mb